Time;durP1;ratioP1;P1;durP2;ratioP2;P2;SDS_P1;SDS_P2;PMS_P1;PMS_P2;Temp;Humidity;BMP_temperature;BMP_pressure;BME280_temperature;BME280_humidity;BME280_pressure;Samples;Min_cycle;Max_cycle;Signal;HPM_P1;HPM_P2
2021/12/28 00:02:21;;;;;;;5.40;4.90;;;9.30;99.90;;;;;;5011461;28;20954;-70
2021/12/28 00:04:46;;;;;;;5.97;5.37;;;9.40;99.90;;;;;;5031762;23;20225;-70
2021/12/28 00:07:12;;;;;;;5.80;5.03;;;9.40;99.90;;;;;;5006814;28;20225;-69
2021/12/28 00:09:37;;;;;;;5.60;5.00;;;9.30;99.90;;;;;;5015983;28;20598;-71
2021/12/28 00:12:03;;;;;;;8.00;4.80;;;9.40;99.90;;;;;;5015475;28;20229;-71
2021/12/28 00:14:35;;;;;;;6.80;4.77;;;9.40;99.90;;;;;;5015584;28;20219;-69
2021/12/28 00:19:45;;;;;;;5.67;5.07;;;9.40;99.90;;;;;;5016460;28;20424;-70
2021/12/28 00:22:11;;;;;;;5.77;4.37;;;9.30;99.90;;;;;;5015551;28;20406;-70
2021/12/28 00:24:36;;;;;;;6.60;5.10;;;9.30;99.90;;;;;;5014999;28;20225;-70
2021/12/28 00:27:03;;;;;;;5.23;4.73;;;9.30;99.90;;;;;;5014536;28;20531;-71
2021/12/28 00:29:29;;;;;;;5.03;4.33;;;9.30;99.90;;;;;;5014366;28;20252;-70
2021/12/28 00:31:54;;;;;;;6.83;4.30;;;9.30;99.90;;;;;;5015187;28;20461;-70
2021/12/28 00:34:20;;;;;;;4.83;4.33;;;9.40;99.90;;;;;;5030295;28;20211;-69
2021/12/28 00:36:46;;;;;;;4.73;4.33;;;9.30;99.90;;;;;;5024090;28;20187;-69
2021/12/28 00:39:12;;;;;;;5.57;4.47;;;9.30;99.90;;;;;;5026546;28;20171;-68
2021/12/28 00:41:37;;;;;;;5.67;4.80;;;9.30;99.90;;;;;;5031502;28;20449;-69
2021/12/28 00:44:03;;;;;;;6.20;5.27;;;9.20;99.90;;;;;;5033547;28;20206;-69
2021/12/28 00:46:29;;;;;;;5.73;5.23;;;9.20;99.90;;;;;;5018764;28;20224;-70
2021/12/28 00:48:54;;;;;;;7.07;4.47;;;9.20;99.90;;;;;;5028854;28;20238;-69
2021/12/28 00:51:20;;;;;;;6.73;4.77;;;9.10;99.90;;;;;;5017603;28;20626;-69
2021/12/28 00:53:45;;;;;;;4.30;3.87;;;9.00;99.90;;;;;;5017693;28;20190;-70
2021/12/28 00:56:11;;;;;;;5.43;4.57;;;9.00;99.90;;;;;;5017634;28;20591;-69
2021/12/28 00:58:37;;;;;;;8.67;4.87;;;8.90;99.90;;;;;;5017934;28;20655;-70
2021/12/28 01:01:03;;;;;;;5.00;4.50;;;8.90;99.90;;;;;;5017607;28;20595;-69
2021/12/28 01:03:29;;;;;;;4.70;4.23;;;8.90;99.90;;;;;;5017408;28;20273;-70
2021/12/28 01:05:54;;;;;;;7.80;4.87;;;8.80;99.90;;;;;;5010308;28;20488;-68
2021/12/28 01:08:20;;;;;;;8.30;4.87;;;8.80;99.90;;;;;;4998174;28;20214;-70
2021/12/28 01:10:49;;;;;;;7.20;4.90;;;8.80;99.90;;;;;;5011390;28;20209;-69
2021/12/28 01:13:16;;;;;;;10.40;5.67;;;8.70;99.90;;;;;;5015878;28;20222;-70
2021/12/28 01:15:42;;;;;;;7.07;5.23;;;8.70;99.90;;;;;;5014974;28;20470;-69
2021/12/28 01:18:08;;;;;;;8.00;4.70;;;8.70;99.90;;;;;;5015916;28;20424;-70
2021/12/28 01:20:33;;;;;;;4.73;4.07;;;8.70;99.90;;;;;;5016762;28;20414;-69
2021/12/28 01:22:59;;;;;;;7.17;5.30;;;8.70;99.90;;;;;;5017334;28;20195;-70
2021/12/28 01:25:25;;;;;;;5.50;4.47;;;8.70;99.90;;;;;;5017104;28;20714;-69
2021/12/28 01:27:51;;;;;;;7.03;4.37;;;8.70;99.90;;;;;;5017144;28;20661;-70
2021/12/28 01:30:20;;;;;;;7.78;5.60;;;8.70;99.90;;;;;;5016223;28;20434;-70
2021/12/28 01:32:47;;;;;;;9.37;5.00;;;8.70;99.90;;;;;;5017197;28;20175;-70
2021/12/28 01:35:14;;;;;;;9.53;4.50;;;8.70;99.90;;;;;;5017168;28;20485;-70
2021/12/28 01:37:40;;;;;;;8.20;4.50;;;8.70;99.90;;;;;;5017069;28;20406;-70
2021/12/28 01:40:09;;;;;;;6.67;4.80;;;8.70;99.90;;;;;;5016973;28;20406;-70
2021/12/28 01:42:54;;;;;;;11.07;5.80;;;8.70;99.90;;;;;;5017161;28;20508;-70
2021/12/28 01:45:30;;;;;;;10.00;5.00;;;8.70;99.90;;;;;;5016685;28;20438;-69
2021/12/28 01:47:55;;;;;;;7.20;4.63;;;8.70;99.90;;;;;;5016893;28;20957;-69
2021/12/28 01:50:21;;;;;;;11.40;4.73;;;8.70;99.90;;;;;;5017135;28;20469;-69
2021/12/28 01:52:46;;;;;;;10.30;4.43;;;8.70;99.90;;;;;;5017261;28;20179;-69
2021/12/28 01:55:13;;;;;;;8.60;4.43;;;8.80;99.90;;;;;;5016052;28;20203;-68
2021/12/28 01:57:39;;;;;;;10.93;4.80;;;8.80;99.90;;;;;;5016350;28;20181;-69
2021/12/28 02:00:05;;;;;;;6.17;4.30;;;8.80;99.90;;;;;;5016589;28;20504;-69
2021/12/28 02:02:31;;;;;;;8.00;4.63;;;8.80;99.90;;;;;;5016888;28;20171;-69
2021/12/28 02:04:56;;;;;;;9.57;4.77;;;8.80;99.90;;;;;;5016467;28;20465;-69
2021/12/28 02:07:22;;;;;;;8.00;4.50;;;8.80;99.90;;;;;;5010069;28;20276;-69
2021/12/28 02:09:47;;;;;;;7.93;4.17;;;8.80;99.90;;;;;;5016585;28;20187;-69
2021/12/28 02:12:13;;;;;;;10.57;6.63;;;8.80;99.90;;;;;;5016519;28;20233;-69
2021/12/28 02:14:44;;;;;;;7.63;3.67;;;8.90;99.90;;;;;;5016116;28;20244;-70
2021/12/28 02:17:09;;;;;;;8.50;3.63;;;8.90;99.90;;;;;;5016566;28;20184;-70
2021/12/28 02:19:35;;;;;;;10.53;4.37;;;8.90;99.90;;;;;;5016000;28;20409;-70
2021/12/28 02:22:00;;;;;;;6.77;4.00;;;8.90;99.90;;;;;;5016085;28;20192;-71
2021/12/28 02:24:26;;;;;;;11.23;3.70;;;9.00;99.90;;;;;;5016197;28;20201;-70
2021/12/28 02:26:52;;;;;;;8.40;3.47;;;9.00;99.90;;;;;;5016095;28;20191;-70
2021/12/28 02:29:17;;;;;;;10.30;3.63;;;9.00;99.90;;;;;;5016280;28;20727;-69
2021/12/28 02:31:43;;;;;;;9.03;3.80;;;9.00;99.90;;;;;;5015841;28;20203;-70
2021/12/28 02:34:08;;;;;;;12.13;4.37;;;9.00;99.90;;;;;;5016571;28;20189;-70
2021/12/28 02:36:34;;;;;;;10.30;3.30;;;9.00;99.90;;;;;;5015809;28;20552;-69
2021/12/28 02:38:59;;;;;;;11.37;4.03;;;9.00;99.90;;;;;;5015734;28;20171;-68
2021/12/28 02:41:25;;;;;;;12.53;3.50;;;9.00;99.90;;;;;;5016393;28;20185;-70
2021/12/28 02:44:02;;;;;;;13.13;4.57;;;9.00;99.90;;;;;;5016225;28;20519;-70
2021/12/28 02:46:27;;;;;;;6.37;3.60;;;9.10;99.90;;;;;;5015005;28;20167;-70
2021/12/28 02:48:53;;;;;;;10.43;4.47;;;9.00;99.90;;;;;;5016079;28;20418;-70
2021/12/28 02:51:19;;;;;;;10.90;4.60;;;9.10;99.90;;;;;;5015504;28;20209;-70
2021/12/28 02:53:45;;;;;;;11.37;4.50;;;9.10;99.90;;;;;;5015268;28;20300;-70
2021/12/28 02:56:13;;;;;;;10.17;3.60;;;9.10;99.90;;;;;;5015067;28;20423;-70
2021/12/28 02:58:41;;;;;;;10.30;3.80;;;9.10;99.90;;;;;;5015453;28;20405;-69
2021/12/28 03:01:19;;;;;;;9.23;3.50;;;9.10;99.90;;;;;;5015017;28;20939;-70
2021/12/28 03:03:46;;;;;;;9.20;4.20;;;9.10;99.90;;;;;;5015287;28;20440;-69
2021/12/28 03:06:14;;;;;;;12.10;3.97;;;9.10;99.90;;;;;;5014708;28;20621;-70
2021/12/28 03:08:43;;;;;;;10.10;3.77;;;9.10;99.90;;;;;;5015179;28;20465;-70
2021/12/28 03:11:10;;;;;;;12.97;3.70;;;9.20;99.90;;;;;;5014753;28;20465;-70
2021/12/28 03:13:42;;;;;;;11.33;3.50;;;9.20;99.90;;;;;;5014750;28;20410;-71
2021/12/28 03:16:09;;;;;;;11.90;4.00;;;9.20;99.90;;;;;;5014338;28;20399;-70
2021/12/28 03:18:35;;;;;;;11.83;4.10;;;9.20;99.90;;;;;;5014618;28;20401;-70
2021/12/28 03:21:01;;;;;;;9.40;4.40;;;9.20;99.90;;;;;;5014612;28;20432;-70
2021/12/28 03:23:27;;;;;;;11.77;3.27;;;9.30;99.90;;;;;;5014285;28;20434;-70
2021/12/28 03:25:54;;;;;;;14.53;4.17;;;9.30;99.90;;;;;;5013996;28;20436;-69
2021/12/28 03:28:23;;;;;;;12.70;3.70;;;9.20;99.90;;;;;;5013701;28;20432;-71
2021/12/28 03:30:52;;;;;;;8.30;3.03;;;9.30;99.90;;;;;;5014291;28;20498;-71
2021/12/28 03:33:19;;;;;;;15.40;4.30;;;9.30;99.90;;;;;;5014960;28;20424;-70
2021/12/28 03:35:45;;;;;;;11.90;3.63;;;9.40;99.90;;;;;;5015578;28;20512;-70
2021/12/28 03:38:11;;;;;;;10.80;4.00;;;9.40;99.90;;;;;;5015879;28;20448;-70
2021/12/28 03:40:37;;;;;;;15.13;4.10;;;9.40;99.90;;;;;;5016145;28;20174;-70
2021/12/28 03:43:03;;;;;;;14.03;4.60;;;9.40;99.90;;;;;;5015803;28;20186;-70
2021/12/28 03:45:29;;;;;;;16.53;4.00;;;9.40;99.90;;;;;;5015540;28;20433;-70
2021/12/28 03:47:54;;;;;;;17.70;4.00;;;9.40;99.90;;;;;;5015302;28;20422;-70
2021/12/28 03:50:22;;;;;;;10.90;3.57;;;9.40;99.90;;;;;;5015922;28;20456;-69
2021/12/28 03:52:47;;;;;;;8.70;3.50;;;9.40;99.90;;;;;;5016225;28;20164;-70
2021/12/28 03:55:13;;;;;;;11.73;4.33;;;9.40;99.90;;;;;;5015443;28;20452;-70
2021/12/28 03:57:39;;;;;;;12.83;4.00;;;9.50;99.90;;;;;;5015417;28;20229;-70
2021/12/28 04:00:11;;;;;;;8.83;3.83;;;9.50;99.90;;;;;;5015060;28;20171;-70
2021/12/28 04:02:37;;;;;;;11.03;4.27;;;9.50;99.90;;;;;;5021324;28;20391;-69
2021/12/28 04:05:02;;;;;;;13.37;4.83;;;9.50;99.90;;;;;;5028714;28;20487;-70
2021/12/28 04:07:29;;;;;;;7.17;3.57;;;9.50;99.90;;;;;;5023608;28;20176;-70
2021/12/28 04:12:21;;;;;;;13.27;3.90;;;9.60;99.90;;;;;;5016248;28;20450;-71
2021/12/28 04:14:47;;;;;;;12.97;3.00;;;9.60;99.90;;;;;;5015343;28;20916;-69
2021/12/28 04:17:13;;;;;;;11.13;3.57;;;9.60;99.90;;;;;;5015057;28;20452;-69
2021/12/28 04:19:39;;;;;;;14.00;3.80;;;9.60;99.90;;;;;;5018483;28;20669;-71
2021/12/28 04:22:05;;;;;;;15.00;3.80;;;9.70;99.90;;;;;;5019464;28;20209;-70
2021/12/28 04:24:30;;;;;;;13.50;4.10;;;9.70;99.90;;;;;;5019181;28;20607;-70
2021/12/28 04:26:56;;;;;;;12.73;4.03;;;9.70;99.90;;;;;;5018158;28;20418;-70
2021/12/28 04:29:21;;;;;;;15.17;4.20;;;9.70;99.90;;;;;;5019266;28;20186;-71
2021/12/28 04:31:47;;;;;;;11.83;3.77;;;9.70;99.90;;;;;;5019299;28;20672;-70
2021/12/28 04:34:12;;;;;;;9.20;3.63;;;9.70;99.90;;;;;;5018430;28;20781;-70
2021/12/28 04:36:38;;;;;;;9.60;3.63;;;9.60;99.90;;;;;;5017938;28;20238;-69
2021/12/28 04:39:05;;;;;;;10.00;3.63;;;9.70;99.90;;;;;;5017367;28;20176;-69
2021/12/28 04:41:31;;;;;;;8.43;3.40;;;9.70;99.90;;;;;;5017883;28;20281;-70
2021/12/28 04:44:00;;;;;;;9.93;3.70;;;9.70;99.90;;;;;;5018704;28;20426;-70
2021/12/28 04:46:26;;;;;;;8.97;3.20;;;9.70;99.90;;;;;;5017928;28;20787;-70
2021/12/28 04:48:52;;;;;;;8.30;3.90;;;9.70;99.90;;;;;;5018335;28;20418;-70
2021/12/28 04:51:17;;;;;;;14.03;3.93;;;9.60;99.90;;;;;;5017873;28;20381;-69
2021/12/28 04:53:43;;;;;;;6.27;3.20;;;9.60;99.90;;;;;;5018608;28;20238;-70
2021/12/28 04:56:09;;;;;;;9.03;4.40;;;9.70;99.90;;;;;;5018076;28;20275;-70
2021/12/28 04:58:34;;;;;;;7.20;3.60;;;9.60;99.90;;;;;;5018535;28;20633;-70
2021/12/28 05:01:00;;;;;;;9.67;4.07;;;9.60;99.90;;;;;;5017784;28;20179;-70
2021/12/28 05:03:25;;;;;;;12.60;3.50;;;9.60;99.90;;;;;;5018294;28;20298;-70
2021/12/28 05:05:52;;;;;;;11.63;3.90;;;9.70;99.90;;;;;;5018614;28;20225;-70
2021/12/28 05:08:19;;;;;;;10.30;4.20;;;9.60;99.90;;;;;;5018050;28;20683;-72
2021/12/28 05:10:46;;;;;;;8.33;3.40;;;9.60;99.90;;;;;;5016590;28;20485;-70
2021/12/28 05:13:11;;;;;;;10.13;4.63;;;9.60;99.90;;;;;;5017874;28;20788;-70
2021/12/28 05:15:38;;;;;;;8.37;4.20;;;9.60;99.90;;;;;;5017467;28;20438;-70
2021/12/28 05:18:04;;;;;;;10.57;3.90;;;9.60;99.90;;;;;;5017947;28;20193;-70
2021/12/28 05:20:30;;;;;;;10.37;4.20;;;9.60;99.90;;;;;;5016836;28;20425;-70
2021/12/28 05:22:56;;;;;;;13.03;4.80;;;9.60;99.90;;;;;;5017650;28;20417;-70
2021/12/28 05:25:21;;;;;;;10.90;3.90;;;9.60;99.90;;;;;;5018007;28;20195;-69
2021/12/28 05:27:47;;;;;;;9.70;4.27;;;9.60;99.90;;;;;;5017505;28;20309;-69
2021/12/28 05:30:13;;;;;;;11.23;3.97;;;9.60;99.90;;;;;;5016852;28;20562;-70
2021/12/28 05:32:38;;;;;;;9.83;4.90;;;9.60;99.90;;;;;;5017256;28;20644;-70
2021/12/28 05:35:06;;;;;;;12.60;4.90;;;9.60;99.90;;;;;;5016948;28;20198;-71
2021/12/28 05:37:32;;;;;;;11.87;5.60;;;9.60;99.90;;;;;;5016919;28;20227;-70
2021/12/28 05:39:57;;;;;;;10.63;4.47;;;9.60;99.90;;;;;;5017300;28;20447;-70
2021/12/28 05:42:23;;;;;;;10.07;5.80;;;9.60;99.90;;;;;;5017892;28;20452;-71
2021/12/28 05:44:49;;;;;;;11.47;4.97;;;9.60;99.90;;;;;;5016339;28;20253;-71
2021/12/28 05:47:14;;;;;;;11.20;5.30;;;9.60;99.90;;;;;;5016022;28;20407;-70
2021/12/28 05:49:40;;;;;;;7.77;5.20;;;9.60;99.90;;;;;;5017135;28;20210;-69
2021/12/28 05:52:06;;;;;;;9.33;5.17;;;9.60;99.90;;;;;;5017093;28;20265;-70
2021/12/28 05:54:31;;;;;;;9.90;5.77;;;9.60;99.90;;;;;;5017233;28;20212;-69
2021/12/28 05:56:57;;;;;;;9.43;4.27;;;9.60;99.90;;;;;;5016565;28;20565;-70
2021/12/28 05:59:23;;;;;;;11.43;4.33;;;9.60;99.90;;;;;;5017413;28;20675;-69
2021/12/28 06:01:48;;;;;;;7.97;4.47;;;9.50;99.90;;;;;;5016310;28;20656;-68
2021/12/28 06:04:14;;;;;;;8.03;6.10;;;9.50;99.90;;;;;;5014498;28;20214;-69
2021/12/28 06:06:39;;;;;;;7.53;4.30;;;9.60;99.90;;;;;;5033252;23;20223;-69
2021/12/28 06:09:05;;;;;;;7.43;4.47;;;9.60;99.90;;;;;;5004295;28;20676;-69
2021/12/28 06:11:31;;;;;;;8.87;3.97;;;9.50;99.90;;;;;;4993882;28;20570;-72
2021/12/28 06:13:56;;;;;;;8.20;4.27;;;9.60;99.90;;;;;;4995094;28;20208;-72
2021/12/28 06:16:22;;;;;;;7.30;4.73;;;9.60;99.90;;;;;;5009090;28;20202;-70
2021/12/28 06:18:47;;;;;;;7.07;3.97;;;9.60;99.90;;;;;;5014989;28;20171;-70
2021/12/28 06:21:13;;;;;;;5.33;4.40;;;9.60;99.90;;;;;;5016577;28;20246;-69
2021/12/28 06:23:39;;;;;;;5.77;3.63;;;9.60;99.90;;;;;;5018020;28;20195;-70
2021/12/28 06:26:05;;;;;;;5.07;3.63;;;9.70;99.90;;;;;;5012539;28;20268;-70
2021/12/28 06:28:30;;;;;;;6.87;4.30;;;9.70;99.90;;;;;;5008866;28;20445;-71
2021/12/28 06:30:56;;;;;;;8.50;4.60;;;9.70;99.90;;;;;;5006080;28;20218;-70
2021/12/28 06:33:23;;;;;;;9.60;3.53;;;9.60;99.90;;;;;;5011292;28;20189;-70
2021/12/28 06:35:49;;;;;;;4.80;3.93;;;9.70;99.90;;;;;;5009554;28;20203;-70
2021/12/28 06:38:16;;;;;;;6.07;3.70;;;9.70;99.90;;;;;;5010776;28;20484;-70
2021/12/28 06:40:42;;;;;;;4.37;3.40;;;9.70;99.90;;;;;;5002810;28;20930;-69
2021/12/28 06:43:08;;;;;;;6.10;3.70;;;9.70;99.90;;;;;;5005430;28;20442;-69
2021/12/28 06:45:34;;;;;;;6.57;4.00;;;9.70;99.90;;;;;;5010576;28;20479;-68
2021/12/28 06:47:59;;;;;;;7.23;3.90;;;9.70;99.90;;;;;;5010046;28;20175;-68
2021/12/28 06:50:25;;;;;;;6.57;3.80;;;9.70;99.90;;;;;;5007278;28;20219;-69
2021/12/28 06:52:51;;;;;;;5.20;3.97;;;9.70;99.90;;;;;;5012410;28;20175;-69
2021/12/28 06:55:16;;;;;;;5.80;4.00;;;9.70;99.90;;;;;;5006717;28;20294;-69
2021/12/28 06:57:42;;;;;;;4.97;3.70;;;9.70;99.90;;;;;;5008466;28;20214;-69
2021/12/28 07:00:11;;;;;;;7.37;3.43;;;9.70;99.90;;;;;;5012438;28;20174;-69
2021/12/28 07:02:37;;;;;;;7.93;4.83;;;9.70;99.90;;;;;;5002233;28;20711;-68
2021/12/28 07:05:06;;;;;;;5.97;3.50;;;9.70;99.90;;;;;;5007746;28;20454;-68
2021/12/28 07:07:31;;;;;;;6.40;3.30;;;9.70;99.90;;;;;;5009021;28;20758;-69
2021/12/28 07:09:57;;;;;;;8.57;3.70;;;9.70;99.90;;;;;;5014487;28;20541;-68
2021/12/28 07:12:22;;;;;;;6.03;3.27;;;9.70;99.90;;;;;;5010240;28;20692;-68
2021/12/28 07:14:48;;;;;;;8.67;3.23;;;9.70;99.90;;;;;;5007022;28;20258;-69
2021/12/28 07:17:13;;;;;;;4.90;3.17;;;9.70;99.90;;;;;;4995254;28;20774;-69
2021/12/28 07:19:39;;;;;;;6.87;3.77;;;9.70;99.90;;;;;;5005889;28;20713;-68
2021/12/28 07:22:05;;;;;;;3.97;3.20;;;9.70;99.90;;;;;;5020197;28;20728;-68
2021/12/28 07:24:30;;;;;;;4.93;2.90;;;9.70;99.90;;;;;;5016183;28;20729;-69
2021/12/28 07:26:57;;;;;;;5.03;3.10;;;9.70;99.90;;;;;;5008114;28;20226;-69
2021/12/28 07:29:22;;;;;;;7.20;3.40;;;9.80;99.90;;;;;;5010649;28;20194;-68
2021/12/28 07:31:48;;;;;;;7.83;2.83;;;9.80;99.90;;;;;;5008447;28;20469;-69
2021/12/28 07:34:14;;;;;;;6.25;3.80;;;9.80;99.90;;;;;;5007144;28;20476;-69
2021/12/28 07:36:39;;;;;;;5.63;2.90;;;9.80;99.90;;;;;;5007668;28;20625;-69
2021/12/28 07:39:06;;;;;;;6.30;3.57;;;9.80;99.90;;;;;;5008296;28;20175;-69
2021/12/28 07:41:32;;;;;;;3.87;2.70;;;9.80;99.90;;;;;;5008507;28;20183;-69
2021/12/28 07:43:58;;;;;;;8.07;2.93;;;9.80;99.90;;;;;;5008319;28;20453;-70
2021/12/28 07:46:24;;;;;;;6.47;2.90;;;9.80;99.90;;;;;;5007286;28;20456;-69
2021/12/28 07:48:50;;;;;;;6.07;2.80;;;9.80;99.90;;;;;;5002835;28;20438;-69
2021/12/28 07:51:16;;;;;;;4.57;3.00;;;9.80;99.90;;;;;;5002075;28;20281;-69
2021/12/28 07:53:41;;;;;;;2.67;2.47;;;9.80;99.90;;;;;;5006618;28;20185;-69
2021/12/28 07:56:07;;;;;;;4.70;2.70;;;9.80;99.90;;;;;;5008164;28;20510;-67
2021/12/28 07:58:33;;;;;;;4.17;3.03;;;9.80;99.90;;;;;;5007035;28;20754;-68
2021/12/28 08:00:59;;;;;;;4.20;2.63;;;9.90;99.90;;;;;;5002865;28;20183;-69
2021/12/28 08:03:25;;;;;;;3.87;2.60;;;9.80;99.90;;;;;;5002203;28;20545;-68
2021/12/28 08:05:52;;;;;;;4.27;2.30;;;9.80;99.90;;;;;;5007102;28;20300;-69
2021/12/28 08:08:17;;;;;;;3.60;2.40;;;9.70;99.90;;;;;;5006131;28;20950;-69
2021/12/28 08:10:44;;;;;;;2.30;2.10;;;9.70;99.90;;;;;;5008095;28;20465;-68
2021/12/28 08:13:09;;;;;;;6.00;2.10;;;9.70;99.90;;;;;;5008301;28;20179;-69
2021/12/28 08:15:35;;;;;;;3.23;2.20;;;9.70;99.90;;;;;;5004850;28;20922;-68
2021/12/28 08:18:03;;;;;;;2.77;2.53;;;9.60;99.90;;;;;;5003250;28;20178;-69
2021/12/28 08:20:29;;;;;;;3.80;2.00;;;9.60;99.90;;;;;;5004949;28;20195;-70
2021/12/28 08:22:56;;;;;;;2.47;2.20;;;9.60;99.90;;;;;;5005463;28;20831;-69
2021/12/28 08:25:22;;;;;;;4.20;2.13;;;9.60;99.90;;;;;;5003594;28;20459;-68
2021/12/28 08:27:49;;;;;;;2.10;1.83;;;9.60;99.90;;;;;;5006319;28;20432;-70
2021/12/28 08:30:15;;;;;;;2.60;2.40;;;9.60;99.90;;;;;;5003487;28;20455;-70
2021/12/28 08:32:41;;;;;;;4.30;2.20;;;9.60;99.90;;;;;;5005774;28;20418;-69
2021/12/28 08:35:07;;;;;;;8.10;2.90;;;9.60;99.90;;;;;;5007186;28;21160;-70
2021/12/28 08:37:33;;;;;;;4.00;2.50;;;9.60;99.90;;;;;;5005321;28;20191;-70
2021/12/28 08:39:59;;;;;;;2.90;2.50;;;9.70;99.90;;;;;;5005684;28;20434;-69
2021/12/28 08:42:25;;;;;;;4.83;2.77;;;9.90;99.90;;;;;;5002475;28;21009;-69
2021/12/28 08:44:51;;;;;;;2.90;2.43;;;9.90;99.90;;;;;;5003922;28;20430;-70
2021/12/28 08:47:18;;;;;;;4.07;2.70;;;9.90;99.90;;;;;;5005849;28;20679;-70
2021/12/28 08:49:43;;;;;;;3.70;2.83;;;9.90;99.90;;;;;;5007710;28;20985;-69
2021/12/28 08:52:09;;;;;;;2.50;2.30;;;9.90;99.90;;;;;;5007537;28;20465;-70
2021/12/28 08:54:34;;;;;;;3.40;2.50;;;9.90;99.90;;;;;;5007872;28;20257;-69
2021/12/28 08:57:00;;;;;;;3.13;2.47;;;9.90;99.90;;;;;;5007366;28;20198;-70
2021/12/28 08:59:26;;;;;;;6.27;2.70;;;9.90;99.90;;;;;;5007769;28;20180;-69
2021/12/28 09:01:54;;;;;;;2.77;2.47;;;10.00;99.90;;;;;;5007592;28;20307;-68
2021/12/28 09:04:20;;;;;;;2.80;2.60;;;10.00;99.90;;;;;;5009485;28;20422;-69
2021/12/28 09:06:46;;;;;;;2.73;2.37;;;10.00;99.90;;;;;;5010764;28;20530;-69
2021/12/28 09:09:12;;;;;;;2.57;2.23;;;9.90;99.90;;;;;;5011111;28;20529;-69
2021/12/28 09:11:37;;;;;;;6.23;2.60;;;9.90;99.90;;;;;;5010965;28;20464;-70
2021/12/28 09:14:03;;;;;;;3.37;1.90;;;9.90;99.90;;;;;;5010969;28;20178;-70
2021/12/28 09:16:29;;;;;;;4.03;2.20;;;10.00;99.90;;;;;;5010473;28;20203;-70
2021/12/28 09:18:55;;;;;;;3.00;2.40;;;9.90;99.90;;;;;;5010014;28;20518;-70
2021/12/28 09:21:21;;;;;;;2.20;2.00;;;10.00;99.90;;;;;;5010255;28;20923;-70
2021/12/28 09:23:46;;;;;;;3.83;2.87;;;9.90;99.90;;;;;;5011092;28;20672;-69
2021/12/28 09:26:12;;;;;;;4.73;2.53;;;10.00;99.90;;;;;;5009235;28;20213;-70
2021/12/28 09:28:37;;;;;;;6.23;3.80;;;10.00;99.90;;;;;;5015867;28;20191;-70
2021/12/28 09:31:03;;;;;;;3.10;2.17;;;10.10;99.90;;;;;;5010994;28;20252;-69
2021/12/28 09:33:29;;;;;;;3.00;2.13;;;10.10;99.90;;;;;;5006211;28;20293;-68
2021/12/28 09:35:55;;;;;;;2.77;2.57;;;10.10;99.90;;;;;;5010282;28;20270;-69
2021/12/28 09:38:22;;;;;;;6.70;2.90;;;10.10;99.90;;;;;;5009693;28;20458;-68
2021/12/28 09:40:50;;;;;;;2.97;2.17;;;10.20;99.90;;;;;;5010193;28;20441;-69
2021/12/28 09:43:16;;;;;;;2.20;2.10;;;10.20;99.90;;;;;;5009584;28;21102;-68
2021/12/28 09:45:42;;;;;;;2.70;2.47;;;10.20;99.90;;;;;;5008718;28;20454;-69
2021/12/28 09:48:09;;;;;;;3.80;2.27;;;10.30;99.90;;;;;;5003262;28;20462;-70
2021/12/28 09:50:36;;;;;;;3.10;2.07;;;10.30;99.90;;;;;;5009674;28;20472;-68
2021/12/28 09:53:02;;;;;;;2.13;1.90;;;10.30;99.90;;;;;;5008137;28;20458;-69
2021/12/28 09:55:29;;;;;;;4.10;2.50;;;10.30;99.90;;;;;;5007374;28;20446;-68
2021/12/28 09:57:56;;;;;;;2.83;2.07;;;10.30;99.90;;;;;;5000565;28;20474;-70
2021/12/28 10:00:22;;;;;;;4.80;1.90;;;10.40;99.90;;;;;;5006950;28;20570;-69
2021/12/28 10:02:49;;;;;;;3.63;1.70;;;10.30;99.90;;;;;;5007631;28;20882;-69
2021/12/28 10:05:20;;;;;;;2.23;1.70;;;10.30;99.90;;;;;;5002538;28;20488;-68
2021/12/28 10:07:56;;;;;;;5.47;3.47;;;10.30;99.90;;;;;;5007320;28;20839;-70
2021/12/28 10:10:35;;;;;;;3.17;2.70;;;10.30;99.90;;;;;;5005678;28;20456;-70
2021/12/28 10:13:07;;;;;;;1.70;1.60;;;10.30;99.90;;;;;;4998335;28;20592;-69
2021/12/28 10:15:37;;;;;;;1.73;1.63;;;10.30;99.90;;;;;;5008064;28;20429;-68
2021/12/28 10:18:07;;;;;;;1.93;1.70;;;10.40;99.90;;;;;;5008997;28;20534;-68
2021/12/28 10:20:40;;;;;;;1.40;1.30;;;10.40;99.90;;;;;;5007403;28;20449;-69
2021/12/28 10:23:10;;;;;;;1.47;1.33;;;10.40;99.90;;;;;;5008982;28;20459;-69
2021/12/28 10:25:42;;;;;;;1.60;1.50;;;10.40;99.90;;;;;;5008562;28;20427;-68
2021/12/28 10:28:36;;;;;;;7.10;3.30;;;10.40;99.90;;;;;;5010477;28;20493;-67
2021/12/28 10:31:05;;;;;;;4.70;3.30;;;10.50;99.90;;;;;;4994238;28;21324;-69
2021/12/28 10:33:33;;;;;;;1.60;1.50;;;10.70;99.90;;;;;;5009303;28;20530;-69
2021/12/28 10:36:03;;;;;;;2.20;1.53;;;10.70;99.90;;;;;;5006260;28;20852;-69
2021/12/28 10:38:32;;;;;;;1.47;1.37;;;10.70;99.90;;;;;;5006660;28;20947;-69
2021/12/28 10:41:17;;;;;;;1.20;1.10;;;10.60;99.90;;;;;;5007946;28;20771;-69
2021/12/28 10:43:46;;;;;;;2.70;1.27;;;10.60;99.90;;;;;;5009058;28;20418;-69
2021/12/28 10:46:18;;;;;;;1.40;1.10;;;10.60;99.90;;;;;;5009174;28;20438;-70
2021/12/28 10:48:49;;;;;;;1.23;1.13;;;10.50;99.90;;;;;;5009570;28;20433;-69
2021/12/28 10:51:28;;;;;;;1.33;1.23;;;10.50;99.90;;;;;;5008774;28;20572;-69
2021/12/28 10:56:50;;;;;;;2.63;1.10;;;10.50;99.90;;;;;;5008730;28;20446;-69
2021/12/28 10:59:21;;;;;;;1.33;1.10;;;10.50;99.90;;;;;;5009349;28;21053;-69
2021/12/28 11:01:48;;;;;;;2.23;1.17;;;10.40;99.90;;;;;;5007609;28;20599;-68
2021/12/28 11:04:14;;;;;;;1.20;1.10;;;10.40;99.90;;;;;;5009156;28;20434;-68
2021/12/28 11:06:43;;;;;;;1.30;1.20;;;10.40;99.90;;;;;;5008446;28;20612;-69
2021/12/28 11:09:12;;;;;;;2.47;1.03;;;10.40;99.90;;;;;;5009217;28;20906;-69
2021/12/28 11:11:40;;;;;;;1.70;1.60;;;10.40;99.90;;;;;;5006163;28;20442;-68
2021/12/28 11:14:11;;;;;;;1.80;1.47;;;10.50;99.90;;;;;;5008973;28;20183;-70
2021/12/28 11:16:38;;;;;;;2.00;1.80;;;10.50;99.90;;;;;;5008585;28;20517;-70
2021/12/28 11:19:06;;;;;;;1.70;1.53;;;10.40;99.90;;;;;;5008954;28;20441;-69
2021/12/28 11:21:33;;;;;;;2.33;1.70;;;10.50;99.90;;;;;;5008649;28;20423;-69
2021/12/28 11:24:13;;;;;;;4.00;1.70;;;10.50;99.90;;;;;;5008896;28;20504;-70
2021/12/28 11:26:42;;;;;;;1.60;1.40;;;10.50;99.90;;;;;;5007879;28;20456;-69
2021/12/28 11:29:15;;;;;;;2.80;2.07;;;10.60;99.90;;;;;;5013619;28;20430;-70
2021/12/28 11:31:50;;;;;;;1.93;1.60;;;10.60;99.90;;;;;;5008980;28;20470;-70
2021/12/28 11:34:25;;;;;;;7.57;2.27;;;10.60;99.90;;;;;;5008578;28;21106;-70
2021/12/28 11:37:03;;;;;;;5.57;1.80;;;10.60;99.90;;;;;;5008247;28;20951;-70
2021/12/28 11:39:33;;;;;;;1.63;1.23;;;10.60;99.90;;;;;;5008880;28;20433;-70
2021/12/28 11:42:00;;;;;;;2.10;1.53;;;10.60;99.90;;;;;;5008293;28;21174;-68
2021/12/28 11:44:27;;;;;;;1.30;1.20;;;10.60;99.90;;;;;;5007625;28;20438;-68
2021/12/28 11:46:56;;;;;;;1.50;1.40;;;10.60;99.90;;;;;;5002856;28;20868;-69
2021/12/28 11:49:26;;;;;;;1.80;1.70;;;10.60;99.90;;;;;;5002612;28;20430;-68
2021/12/28 11:51:53;;;;;;;8.53;3.57;;;10.60;99.90;;;;;;5002292;28;20478;-70
2021/12/28 11:54:21;;;;;;;1.30;1.30;;;10.60;99.90;;;;;;5008169;28;20422;-69
2021/12/28 11:56:52;;;;;;;3.60;1.90;;;10.60;99.90;;;;;;5003513;28;20472;-68
2021/12/28 11:59:20;;;;;;;3.17;2.30;;;10.60;99.90;;;;;;5001135;28;20476;-70
2021/12/28 12:01:53;;;;;;;2.67;1.83;;;10.70;99.90;;;;;;5006322;28;20422;-70
2021/12/28 12:04:30;;;;;;;1.90;1.57;;;10.70;99.90;;;;;;5006842;28;20457;-71
2021/12/28 12:07:18;;;;;;;1.53;1.43;;;10.70;99.90;;;;;;5005443;28;21080;-70
2021/12/28 12:09:49;;;;;;;1.30;1.20;;;10.70;99.90;;;;;;5004285;28;20784;-70
2021/12/28 12:12:17;;;;;;;2.37;1.30;;;10.70;99.90;;;;;;5006601;28;20837;-69
2021/12/28 12:14:58;;;;;;;1.17;1.17;;;10.70;99.90;;;;;;5003775;28;20430;-70
2021/12/28 12:17:43;;;;;;;1.50;1.40;;;10.70;99.90;;;;;;5006315;28;21832;-69
2021/12/28 12:20:21;;;;;;;1.50;1.40;;;10.70;99.90;;;;;;5002823;28;20426;-70
2021/12/28 12:23:07;;;;;;;1.50;1.40;;;10.70;99.90;;;;;;5005675;28;20493;-69
2021/12/28 12:25:49;;;;;;;1.43;1.33;;;10.70;99.90;;;;;;5000606;28;20441;-69
2021/12/28 12:28:19;;;;;;;1.90;1.30;;;10.60;99.90;;;;;;5010001;28;20514;-69
2021/12/28 12:30:47;;;;;;;1.43;1.30;;;10.60;99.90;;;;;;5008854;28;20462;-69
2021/12/28 12:33:14;;;;;;;1.63;1.50;;;10.70;99.90;;;;;;5006954;28;20513;-69
2021/12/28 12:35:57;;;;;;;1.60;1.50;;;10.70;99.90;;;;;;5007261;28;20469;-68
2021/12/28 12:38:23;;;;;;;1.50;1.40;;;10.70;99.90;;;;;;5008825;28;20441;-70
2021/12/28 12:41:03;;;;;;;7.87;2.60;;;10.60;99.90;;;;;;5011455;28;20924;-68
2021/12/28 12:43:34;;;;;;;7.60;2.20;;;10.60;99.90;;;;;;5011636;28;20434;-69
2021/12/28 12:46:23;;;;;;;1.53;1.40;;;10.60;99.90;;;;;;5011783;28;20512;-70
2021/12/28 12:48:54;;;;;;;4.63;2.10;;;10.70;99.90;;;;;;5009397;28;20441;-69
2021/12/28 12:51:23;;;;;;;1.77;1.63;;;10.60;99.90;;;;;;5011118;28;20479;-69
2021/12/28 12:54:02;;;;;;;1.20;1.20;;;10.50;99.90;;;;;;5011832;28;20418;-68
2021/12/28 12:56:43;;;;;;;1.67;1.57;;;10.30;99.90;;;;;;5011050;28;20430;-70
2021/12/28 12:59:40;;;;;;;7.07;2.33;;;10.40;99.90;;;;;;5009138;28;21079;-68
2021/12/28 13:02:09;;;;;;;11.43;3.60;;;10.30;99.90;;;;;;5011210;28;20441;-69
2021/12/28 13:04:34;;;;;;;5.33;2.70;;;10.20;99.90;;;;;;5011535;28;20986;-69